createdAt,value
2018-02-19T00:09:28.830Z,21.3
2018-02-19T00:29:28.898Z,24.1
2018-02-19T00:59:28.919Z,22
2018-02-19T01:14:28.939Z,20.5
2018-02-19T01:49:28.952Z,15.4
2018-02-19T02:04:28.969Z,14.8
2018-02-19T02:24:28.972Z,14.1
2018-02-19T02:39:29.000Z,16.7
2018-02-19T02:54:29.073Z,15.1
2018-02-19T03:09:29.077Z,13.4
2018-02-19T03:29:29.063Z,12.5
2018-02-19T03:44:29.087Z,13.9
2018-02-19T03:59:29.095Z,14.6
2018-02-19T04:19:33.464Z,15.4
2018-02-19T04:34:33.663Z,15.6
2018-02-19T04:49:33.698Z,13.8
2018-02-19T05:04:33.686Z,12.1
2018-02-19T05:24:33.710Z,14.7
2018-02-19T05:39:33.690Z,18.8
2018-02-19T05:54:33.721Z,18.1
2018-02-19T06:09:33.790Z,19.5
2018-02-19T06:29:33.744Z,18.7
2018-02-19T06:44:33.758Z,19.3
2018-02-19T06:59:33.771Z,17.9
2018-02-19T07:19:33.993Z,17.7
2018-02-19T07:49:33.719Z,13.5
2018-02-19T08:04:33.793Z,10.2
2018-02-19T08:24:33.824Z,13.2
2018-02-19T08:39:33.835Z,16.9
2018-02-19T08:54:33.996Z,17.3
2018-02-19T09:14:34.006Z,15.7
2018-02-19T09:29:48.757Z,17.4
2018-02-19T09:44:43.439Z,15.8
2018-02-19T09:59:43.653Z,15.5
2018-02-19T10:19:43.452Z,15.5
2018-02-19T10:34:43.634Z,15
2018-02-19T10:49:43.695Z,16
2018-02-19T11:04:43.481Z,16.7
2018-02-19T11:24:43.515Z,19.1
2018-02-19T11:39:43.708Z,16.3
2018-02-19T11:54:43.805Z,17.7
2018-02-19T12:14:43.556Z,16.6
2018-02-19T12:44:43.741Z,22.7
2018-02-19T12:59:43.756Z,21.6
2018-02-19T13:19:43.578Z,23.8
2018-02-19T13:34:53.326Z,22.1
2018-02-19T13:49:54.796Z,25.4
2018-02-19T14:09:54.779Z,23.6
2018-02-19T14:25:01.666Z,25.8
2018-02-19T14:39:55.579Z,24.4
2018-02-19T14:54:55.495Z,23.2
2018-02-19T15:14:55.704Z,26.3
2018-02-19T15:29:55.573Z,25.8
2018-02-19T15:44:55.590Z,25.7
2018-02-19T15:59:55.590Z,26.9
2018-02-19T16:19:55.608Z,25.6
2018-02-19T16:49:55.736Z,26.6
2018-02-19T17:09:55.619Z,22.8
2018-02-19T17:24:55.965Z,24.3
2018-02-19T17:39:55.787Z,25.4
2018-02-19T17:54:55.777Z,21.4
2018-02-19T18:14:55.817Z,21.1
2018-02-19T18:29:55.810Z,21.9
2018-02-19T18:44:55.810Z,22.7
2018-02-19T19:04:55.681Z,21.5
2018-02-19T19:19:55.694Z,21.8
2018-02-19T19:35:00.895Z,22.6
2018-02-19T19:50:00.638Z,23.5
2018-02-19T20:10:00.781Z,21.5
2018-02-19T20:25:00.764Z,20.9
2018-02-19T20:40:00.749Z,21.8
2018-02-19T21:00:00.664Z,18.7
2018-02-19T21:15:00.654Z,20.4
2018-02-19T21:30:00.745Z,19.7
2018-02-19T21:45:00.626Z,19.3
2018-02-19T22:05:00.669Z,19.9
2018-02-19T22:20:00.667Z,19.1
2018-02-19T22:35:00.815Z,17.4
2018-02-19T22:55:00.808Z,20.3
2018-02-19T23:10:01.911Z,20
2018-02-19T23:25:00.726Z,17.9
2018-02-19T23:40:00.834Z,22.2
